createdAt,value
2018-07-01T00:00:56.059Z,17.58
2018-07-01T00:03:25.442Z,17.58
2018-07-01T00:05:54.246Z,17.50
2018-07-01T00:08:23.042Z,17.43
2018-07-01T00:10:52.588Z,17.40
2018-07-01T00:13:21.785Z,17.36
2018-07-01T00:15:51.391Z,17.30
2018-07-01T00:18:20.197Z,17.29
2018-07-01T00:20:49.574Z,17.28
2018-07-01T00:23:18.694Z,17.20
2018-07-01T00:25:47.885Z,17.18
2018-07-01T00:28:17.047Z,17.17
2018-07-01T00:30:45.841Z,17.15
2018-07-01T00:33:14.870Z,17.13
2018-07-01T00:35:43.619Z,17.08
2018-07-01T00:38:12.770Z,17.02
2018-07-01T00:40:41.671Z,16.95
2018-07-01T00:43:10.930Z,16.91
2018-07-01T00:45:39.924Z,16.86
2018-07-01T00:48:09.426Z,16.84
2018-07-01T00:50:38.215Z,16.84
2018-07-01T00:53:07.436Z,16.86
2018-07-01T00:55:36.279Z,16.83
2018-07-01T00:58:05.376Z,16.83
2018-07-01T01:00:34.984Z,16.81
2018-07-01T01:03:04.545Z,16.78
2018-07-01T01:05:33.864Z,16.75
2018-07-01T01:08:02.755Z,16.73
2018-07-01T01:10:31.863Z,16.71
2018-07-01T01:13:00.654Z,16.68
2018-07-01T01:15:29.807Z,16.65
2018-07-01T01:17:58.918Z,16.60
2018-07-01T01:20:28.083Z,16.56
2018-07-01T01:22:57.275Z,16.52
2018-07-01T01:25:26.349Z,16.45
2018-07-01T01:27:55.367Z,16.41
2018-07-01T01:30:24.593Z,16.38
2018-07-01T01:38:47.552Z,16.30
2018-07-01T01:41:30.587Z,16.27
2018-07-01T01:44:03.645Z,16.24
2018-07-01T01:46:37.726Z,16.20
2018-07-01T01:49:12.466Z,16.16
2018-07-01T01:51:46.224Z,16.15
2018-07-01T01:54:19.528Z,16.14
2018-07-01T01:57:00.820Z,16.14
2018-07-01T01:59:33.784Z,16.10
2018-07-01T02:03:08.415Z,16.06
2018-07-01T02:05:43.903Z,16.02
2018-07-01T02:08:17.189Z,15.99
2018-07-01T02:10:46.423Z,15.98
2018-07-01T02:13:15.555Z,15.95
2018-07-01T02:15:50.499Z,15.90
2018-07-01T02:18:19.643Z,15.84
2018-07-01T02:20:48.679Z,15.81
2018-07-01T02:23:28.398Z,15.78
2018-07-01T02:25:57.209Z,15.72
2018-07-01T02:28:26.276Z,15.68
2018-07-01T02:30:55.707Z,15.66
2018-07-01T02:33:24.474Z,15.67
2018-07-01T02:35:53.684Z,15.67
2018-07-01T02:38:22.735Z,15.65
2018-07-01T02:40:51.947Z,15.63
2018-07-01T02:43:20.764Z,15.61
2018-07-01T02:45:49.547Z,15.60
2018-07-01T02:48:18.362Z,15.58
2018-07-01T02:50:47.154Z,15.59
2018-07-01T02:53:15.958Z,15.57
2018-07-01T02:55:45.499Z,15.54
2018-07-01T02:58:14.282Z,15.53
2018-07-01T03:00:43.076Z,15.50
2018-07-01T03:03:12.272Z,15.44
2018-07-01T03:05:41.598Z,15.43
2018-07-01T03:08:10.337Z,15.40
2018-07-01T03:10:39.415Z,15.37
2018-07-01T03:13:08.540Z,15.33
2018-07-01T03:15:37.296Z,15.30
2018-07-01T03:18:06.455Z,15.26
2018-07-01T03:20:35.458Z,15.26
2018-07-01T03:23:04.295Z,15.25
2018-07-01T03:25:33.110Z,15.21
2018-07-01T03:28:02.079Z,15.20
2018-07-01T03:30:31.114Z,15.16
2018-07-01T03:33:00.260Z,15.20
2018-07-01T03:35:29.473Z,15.21
2018-07-01T03:37:58.852Z,15.18
2018-07-01T03:40:28.202Z,15.18
2018-07-01T03:42:57.339Z,15.18
2018-07-01T03:45:26.344Z,15.19
2018-07-01T03:47:55.313Z,15.21
2018-07-01T03:50:24.448Z,15.20
2018-07-01T03:52:53.220Z,15.23
2018-07-01T03:55:22.030Z,15.23
2018-07-01T03:57:51.004Z,15.24
2018-07-01T04:00:20.151Z,15.23
2018-07-01T04:02:49.210Z,15.23
2018-07-01T04:05:17.981Z,15.25
2018-07-01T04:07:46.975Z,15.23
2018-07-01T04:10:15.742Z,15.23
2018-07-01T04:12:44.578Z,15.26
2018-07-01T04:15:13.899Z,15.31
2018-07-01T04:17:43.135Z,15.30
2018-07-01T04:20:11.958Z,15.35
2018-07-01T04:22:40.737Z,15.37
2018-07-01T04:25:10.122Z,15.39
2018-07-01T04:27:38.919Z,15.40
2018-07-01T04:30:07.738Z,15.43
2018-07-01T04:32:36.552Z,15.46
2018-07-01T04:35:05.579Z,15.48
2018-07-01T04:37:34.787Z,15.48
2018-07-01T04:40:03.908Z,15.53
2018-07-01T04:42:33.011Z,15.57
2018-07-01T04:45:02.726Z,15.62
2018-07-01T04:47:31.494Z,15.67
2018-07-01T04:50:00.980Z,15.73
2018-07-01T04:52:30.113Z,15.75
2018-07-01T04:54:59.268Z,15.82
2018-07-01T04:57:28.832Z,15.88
2018-07-01T04:59:58.565Z,15.93
2018-07-01T05:02:28.720Z,16.01
2018-07-01T05:04:57.818Z,16.08
2018-07-01T05:07:27.322Z,16.15
2018-07-01T05:09:56.644Z,16.23
2018-07-01T05:12:25.492Z,16.32
2018-07-01T05:14:55.006Z,16.40
2018-07-01T05:17:24.541Z,16.49
2018-07-01T05:19:53.355Z,16.59
2018-07-01T05:22:22.511Z,16.66
2018-07-01T05:24:51.487Z,16.74
2018-07-01T05:27:20.444Z,16.82
2018-07-01T05:29:49.469Z,16.91
2018-07-01T05:32:18.322Z,16.93
2018-07-01T05:34:47.809Z,17.01
2018-07-01T05:37:16.709Z,17.10
2018-07-01T05:39:46.309Z,17.18
2018-07-01T05:42:15.510Z,17.27
2018-07-01T05:44:44.694Z,17.41
2018-07-01T05:47:13.530Z,17.48
2018-07-01T05:49:42.912Z,17.57
2018-07-01T05:52:12.182Z,17.69
2018-07-01T05:54:41.020Z,17.81
2018-07-01T05:57:10.131Z,17.91
2018-07-01T05:59:39.249Z,18.04
2018-07-01T06:02:08.352Z,18.12
2018-07-01T06:04:37.838Z,18.21
2018-07-01T06:07:06.795Z,18.37
2018-07-01T06:09:36.111Z,18.52
2018-07-01T06:12:05.268Z,18.60
2018-07-01T06:14:34.176Z,18.74
2018-07-01T06:17:03.645Z,18.84
2018-07-01T06:19:32.461Z,18.97
2018-07-01T06:22:01.636Z,19.12
2018-07-01T06:24:30.442Z,19.24
2018-07-01T06:26:59.689Z,19.39
2018-07-01T06:29:29.287Z,19.54
2018-07-01T06:31:58.922Z,19.63
2018-07-01T06:34:28.092Z,19.73
2018-07-01T06:36:57.238Z,19.89
2018-07-01T06:39:26.122Z,20.06
2018-07-01T06:41:55.238Z,20.21
2018-07-01T06:44:24.622Z,20.37
2018-07-01T06:46:54.422Z,20.47
2018-07-01T06:49:23.760Z,20.58
2018-07-01T06:51:53.174Z,20.63
2018-07-01T06:54:22.094Z,20.81
2018-07-01T06:56:51.369Z,21.02
2018-07-01T06:59:21.396Z,21.05
2018-07-01T07:01:51.321Z,21.12
2018-07-01T07:04:21.405Z,21.27
2018-07-01T07:06:52.153Z,21.42
2018-07-01T07:09:23.259Z,21.53
2018-07-01T07:11:53.127Z,21.67
2018-07-01T07:14:23.785Z,21.76
2018-07-01T07:16:54.067Z,21.94
2018-07-01T07:19:24.877Z,22.04
2018-07-01T07:21:56.286Z,22.08
2018-07-01T07:24:26.635Z,22.25
2018-07-01T07:26:58.294Z,22.39
2018-07-01T07:29:29.014Z,22.46
2018-07-01T07:31:59.795Z,22.55
2018-07-01T07:34:30.577Z,22.62
2018-07-01T07:37:00.730Z,22.78
2018-07-01T07:39:29.920Z,22.96
2018-07-01T07:41:59.353Z,23.12
2018-07-01T07:44:28.626Z,23.17
2018-07-01T07:46:57.791Z,23.19
2018-07-01T07:49:27.218Z,23.22
2018-07-01T07:51:56.877Z,23.20
2018-07-01T07:54:25.774Z,23.28
2018-07-01T07:56:55.578Z,23.42
2018-07-01T07:59:24.504Z,23.53
2018-07-01T08:01:54.331Z,23.57
2018-07-01T08:04:23.281Z,23.59
2018-07-01T08:06:52.592Z,23.68
2018-07-01T08:09:22.193Z,23.63
2018-07-01T08:11:51.162Z,23.73
2018-07-01T08:14:20.318Z,23.86
2018-07-01T08:16:49.785Z,23.88
2018-07-01T08:19:20.102Z,23.96
2018-07-01T08:21:48.980Z,24.04
2018-07-01T08:24:18.441Z,24.09
2018-07-01T08:26:47.355Z,24.04
2018-07-01T08:29:16.201Z,24.15
2018-07-01T08:31:45.395Z,24.18
2018-07-01T08:34:14.537Z,24.28
2018-07-01T08:36:44.167Z,24.41
2018-07-01T08:39:14.227Z,24.32
2018-07-01T08:42:32.666Z,24.43
2018-07-01T08:45:02.953Z,24.48
2018-07-01T08:47:32.332Z,24.52
2018-07-01T08:50:01.851Z,24.61
2018-07-01T08:52:31.444Z,24.76
2018-07-01T08:55:00.772Z,24.91
2018-07-01T08:57:29.987Z,25.02
2018-07-01T08:59:59.460Z,25.14
2018-07-01T09:02:28.522Z,25.27
2018-07-01T09:04:57.431Z,25.16
2018-07-01T09:07:26.695Z,25.08
2018-07-01T09:09:55.864Z,24.90
2018-07-01T09:12:24.796Z,25.00
2018-07-01T09:14:54.099Z,24.96
2018-07-01T09:17:23.064Z,24.98
2018-07-01T09:19:52.972Z,25.04
2018-07-01T09:22:21.835Z,24.95
2018-07-01T09:24:50.841Z,25.03
2018-07-01T09:27:20.160Z,25.14
2018-07-01T09:29:54.194Z,25.43
2018-07-01T09:32:23.013Z,25.70
2018-07-01T09:34:52.187Z,25.76
2018-07-01T09:37:21.101Z,25.80
2018-07-01T09:39:50.255Z,25.85
2018-07-01T09:42:19.586Z,25.81
2018-07-01T09:44:48.636Z,25.91
2018-07-01T09:47:17.558Z,25.93
2018-07-01T09:49:46.892Z,25.99
2018-07-01T09:52:16.124Z,25.95
2018-07-01T09:54:45.403Z,26.02
2018-07-01T09:57:15.128Z,26.02
2018-07-01T09:59:44.658Z,26.10
2018-07-01T10:02:14.127Z,26.15
2018-07-01T10:04:43.217Z,26.36
2018-07-01T10:07:12.040Z,26.47
2018-07-01T10:09:41.077Z,26.34
2018-07-01T10:12:09.967Z,26.31
2018-07-01T10:14:38.953Z,26.48
2018-07-01T10:17:08.370Z,26.53
2018-07-01T10:19:37.836Z,26.68
2018-07-01T10:22:07.360Z,26.74
2018-07-01T10:24:36.441Z,26.62
2018-07-01T10:27:05.325Z,26.80
2018-07-01T10:29:34.395Z,26.96
2018-07-01T10:32:03.604Z,27.09
2018-07-01T10:34:33.192Z,27.13
2018-07-01T10:37:03.299Z,27.20
2018-07-01T10:39:32.529Z,27.20
2018-07-01T10:42:01.793Z,27.10
2018-07-01T10:44:31.451Z,27.11
2018-07-01T10:47:00.723Z,27.31
2018-07-01T10:49:29.627Z,27.20
2018-07-01T10:51:59.395Z,26.53
2018-07-01T10:54:28.553Z,26.71
2018-07-01T10:56:57.789Z,27.19
2018-07-01T10:59:27.410Z,27.45
2018-07-01T11:01:56.840Z,27.55
2018-07-01T11:04:25.729Z,27.70
2018-07-01T11:06:55.129Z,28.02
2018-07-01T11:09:24.055Z,28.17
2018-07-01T11:11:53.000Z,28.21
2018-07-01T11:14:21.938Z,28.22
2018-07-01T11:16:51.095Z,28.20
2018-07-01T11:19:20.031Z,27.99
2018-07-01T11:21:48.899Z,28.01
2018-07-01T11:24:17.890Z,28.43
2018-07-01T11:26:47.282Z,28.59
2018-07-01T11:29:16.697Z,28.57
2018-07-01T11:31:47.432Z,28.53
2018-07-01T11:34:16.424Z,28.57
2018-07-01T11:36:45.468Z,28.26
2018-07-01T11:39:14.717Z,28.25
2018-07-01T11:41:43.580Z,28.51
2018-07-01T11:44:13.234Z,28.76
2018-07-01T11:46:42.688Z,29.06
2018-07-01T11:49:11.756Z,29.41
2018-07-01T11:51:40.665Z,29.26
2018-07-01T11:54:09.656Z,28.65
2018-07-01T11:56:39.251Z,28.59
2018-07-01T11:59:08.542Z,28.59
2018-07-01T12:01:37.387Z,28.56
2018-07-01T12:04:06.967Z,28.86
2018-07-01T12:06:37.697Z,28.98
2018-07-01T12:09:10.250Z,28.97
2018-07-01T12:11:39.221Z,29.16
2018-07-01T12:14:08.104Z,29.21
2018-07-01T12:16:37.563Z,29.10
2018-07-01T12:19:06.674Z,29.27
2018-07-01T12:21:35.947Z,29.45
2018-07-01T12:24:05.343Z,29.26
2018-07-01T12:26:34.581Z,29.27
2018-07-01T12:29:03.729Z,29.30
2018-07-01T12:31:32.904Z,29.35
2018-07-01T12:34:01.952Z,29.36
2018-07-01T12:36:31.460Z,29.58
2018-07-01T12:39:00.427Z,29.68
2018-07-01T12:41:30.181Z,29.63
2018-07-01T12:43:59.011Z,29.67
2018-07-01T12:46:28.262Z,29.84
2018-07-01T12:48:57.104Z,29.89
2018-07-01T12:51:25.935Z,30.09
2018-07-01T12:53:55.993Z,30.10
2018-07-01T12:56:25.513Z,29.91
2018-07-01T12:58:54.347Z,30.11
2018-07-01T13:01:23.532Z,29.82
2018-07-01T13:03:52.675Z,29.55
2018-07-01T13:06:21.772Z,29.76
2018-07-01T13:08:51.238Z,28.89
2018-07-01T13:11:20.145Z,28.89
2018-07-01T13:13:49.066Z,28.40
2018-07-01T13:16:18.473Z,28.73
2018-07-01T13:18:48.004Z,29.31
2018-07-01T13:21:16.903Z,29.48
2018-07-01T13:23:45.781Z,29.63
2018-07-01T13:26:15.017Z,29.48
2018-07-01T13:28:43.966Z,29.51
2018-07-01T13:31:12.910Z,29.77
2018-07-01T13:33:42.051Z,29.88
2018-07-01T13:36:11.212Z,29.31
2018-07-01T13:38:40.107Z,29.47
2018-07-01T13:41:08.957Z,29.83
2018-07-01T13:43:38.718Z,29.81
2018-07-01T13:46:08.354Z,29.70
2018-07-01T13:48:37.416Z,29.61
2018-07-01T13:51:06.916Z,29.78
2018-07-01T13:53:35.764Z,29.92
2018-07-01T13:56:04.914Z,30.05
2018-07-01T13:58:33.845Z,30.33
2018-07-01T14:01:02.905Z,30.26
2018-07-01T14:03:32.164Z,30.15
2018-07-01T14:06:01.040Z,30.28
2018-07-01T14:08:30.012Z,30.52
2018-07-01T14:10:59.161Z,30.57
2018-07-01T14:13:28.475Z,30.65
2018-07-01T14:15:57.609Z,30.86
2018-07-01T14:18:27.215Z,30.89
2018-07-01T14:20:56.652Z,30.25
2018-07-01T14:23:25.961Z,30.48
2018-07-01T14:25:55.099Z,30.31
2018-07-01T14:28:24.051Z,30.35
2018-07-01T14:30:53.756Z,30.69
2018-07-01T14:33:23.316Z,31.13
2018-07-01T14:35:52.843Z,31.16
2018-07-01T14:38:21.751Z,30.81
2018-07-01T14:40:51.424Z,30.53
2018-07-01T14:43:21.077Z,30.08
2018-07-01T14:45:49.954Z,29.72
2018-07-01T14:48:19.290Z,29.60
2018-07-01T14:50:48.514Z,29.85
2018-07-01T14:53:17.368Z,29.99
2018-07-01T14:55:46.418Z,30.24
2018-07-01T14:58:15.670Z,30.48
2018-07-01T15:00:45.035Z,30.60
2018-07-01T15:03:13.905Z,30.07
2018-07-01T15:05:43.134Z,29.65
2018-07-01T15:08:12.560Z,29.56
2018-07-01T15:10:41.735Z,29.55
2018-07-01T15:13:11.012Z,29.17
2018-07-01T15:15:40.146Z,29.29
2018-07-01T15:18:09.182Z,29.40
2018-07-01T15:20:39.216Z,29.39
2018-07-01T15:23:08.383Z,29.13
2018-07-01T15:25:37.503Z,29.25
2018-07-01T15:28:07.219Z,29.66
2018-07-01T15:30:36.548Z,29.74
2018-07-01T15:33:05.442Z,29.48
2018-07-01T15:35:34.627Z,29.33
2018-07-01T15:38:03.506Z,29.29
2018-07-01T15:40:33.245Z,28.93
2018-07-01T15:43:02.176Z,28.98
2018-07-01T15:45:31.826Z,28.50
2018-07-01T15:48:01.007Z,28.72
2018-07-01T15:50:30.933Z,28.89
2018-07-01T15:53:00.001Z,29.11
2018-07-01T15:55:29.015Z,29.22
2018-07-01T15:57:58.504Z,29.30
2018-07-01T16:00:28.308Z,29.35
2018-07-01T16:03:02.144Z,29.26
2018-07-01T16:05:31.348Z,29.07
2018-07-01T16:08:00.188Z,29.07
2018-07-01T16:10:29.667Z,29.15
2018-07-01T16:12:58.880Z,29.35
2018-07-01T16:15:28.069Z,29.44
2018-07-01T16:17:56.911Z,29.43
2018-07-01T16:20:26.151Z,29.37
2018-07-01T16:22:54.992Z,29.31
2018-07-01T16:25:29.079Z,29.18
2018-07-01T16:28:03.058Z,29.22
2018-07-01T16:30:31.894Z,29.09
2018-07-01T16:33:01.131Z,28.95
2018-07-01T16:35:30.209Z,28.55
2018-07-01T16:37:59.367Z,28.31
2018-07-01T16:40:28.602Z,28.37
2018-07-01T16:42:57.999Z,28.18
2018-07-01T16:45:27.567Z,28.34
2018-07-01T16:47:56.953Z,28.39
2018-07-01T16:50:26.550Z,28.17
2018-07-01T16:52:55.914Z,27.85
2018-07-01T16:55:25.198Z,27.83
2018-07-01T16:57:54.276Z,27.85
2018-07-01T17:00:23.331Z,27.84
2018-07-01T17:02:52.631Z,27.80
2018-07-01T17:05:22.372Z,27.79
2018-07-01T17:07:51.751Z,27.68
2018-07-01T17:10:20.994Z,27.73
2018-07-01T17:12:51.202Z,27.87
2018-07-01T17:15:20.791Z,27.87
2018-07-01T17:17:49.824Z,27.89
2018-07-01T17:20:18.712Z,27.99
2018-07-01T17:22:47.878Z,27.84
2018-07-01T17:25:16.818Z,27.52
2018-07-01T17:27:46.038Z,27.38
2018-07-01T17:30:15.330Z,27.43
2018-07-01T17:32:49.955Z,27.48
2018-07-01T17:35:18.913Z,27.22
2018-07-01T17:37:48.315Z,27.17
2018-07-01T17:40:17.982Z,26.86
2018-07-01T17:42:47.088Z,26.63
2018-07-01T17:45:15.943Z,26.40
2018-07-01T17:47:45.890Z,26.36
2018-07-01T17:50:14.844Z,26.29
2018-07-01T17:52:43.886Z,26.19
2018-07-01T17:55:13.228Z,26.11
2018-07-01T17:57:42.780Z,26.01
2018-07-01T18:00:12.067Z,25.87
2018-07-01T18:02:41.515Z,25.75
2018-07-01T18:05:10.744Z,25.71
2018-07-01T18:07:40.051Z,25.73
2018-07-01T18:10:09.288Z,25.71
2018-07-01T18:12:38.576Z,25.69
2018-07-01T18:15:07.602Z,25.72
2018-07-01T18:17:36.764Z,25.75
2018-07-01T18:20:06.052Z,25.68
2018-07-01T18:23:00.803Z,25.62
2018-07-01T18:25:09.842Z,25.41
2018-07-01T18:27:34.838Z,25.42
2018-07-01T18:30:02.801Z,25.42
2018-07-01T18:32:32.114Z,25.39
2018-07-01T18:35:02.007Z,25.34
2018-07-01T18:37:30.992Z,25.24
2018-07-01T18:40:00.454Z,25.23
2018-07-01T18:42:29.333Z,25.26
2018-07-01T18:44:58.411Z,25.35
2018-07-01T18:47:27.991Z,25.42
2018-07-01T18:49:57.641Z,25.40
2018-07-01T18:52:26.507Z,25.35
2018-07-01T18:54:55.361Z,25.27
2018-07-01T18:57:24.296Z,25.16
2018-07-01T18:59:53.149Z,25.06
2018-07-01T19:02:22.398Z,24.96
2018-07-01T19:04:51.621Z,24.92
2018-07-01T19:07:20.593Z,24.85
2018-07-01T19:09:49.456Z,24.77
2018-07-01T19:12:19.011Z,24.74
2018-07-01T19:14:47.921Z,24.67
2018-07-01T19:17:16.898Z,24.52
2018-07-01T19:19:45.806Z,24.45
2018-07-01T19:22:14.781Z,24.35
2018-07-01T19:24:43.606Z,24.25
2018-07-01T19:27:12.946Z,24.26
2018-07-01T19:29:42.030Z,24.24
2018-07-01T19:32:12.004Z,24.24
2018-07-01T19:34:41.562Z,24.19
2018-07-01T19:37:10.833Z,24.11
2018-07-01T19:39:40.266Z,24.06
2018-07-01T19:42:10.065Z,24.01
2018-07-01T19:44:39.596Z,23.95
2018-07-01T19:47:08.788Z,23.91
2018-07-01T19:49:37.724Z,23.82
2018-07-01T19:52:07.284Z,23.76
2018-07-01T19:54:36.459Z,23.66
2018-07-01T19:57:05.670Z,23.61
2018-07-01T19:59:34.519Z,23.56
2018-07-01T20:02:03.926Z,23.50
2018-07-01T20:04:33.377Z,23.42
2018-07-01T20:07:03.289Z,23.35
2018-07-01T20:09:32.412Z,23.30
2018-07-01T20:12:01.288Z,23.29
2018-07-01T20:14:30.522Z,23.25
2018-07-01T20:16:59.441Z,23.19
2018-07-01T20:19:28.340Z,23.12
2018-07-01T20:21:57.281Z,23.02
2018-07-01T20:24:26.724Z,22.88
2018-07-01T20:26:55.965Z,22.74
2018-07-01T20:29:24.910Z,22.64
2018-07-01T20:31:53.872Z,22.57
2018-07-01T20:34:23.426Z,22.52
2018-07-01T20:36:52.623Z,22.48
2018-07-01T20:39:22.060Z,22.40
2018-07-01T20:41:51.178Z,22.34
2018-07-01T20:44:20.111Z,22.27
2018-07-01T20:46:49.478Z,22.20
2018-07-01T20:49:18.773Z,22.11
2018-07-01T20:51:47.763Z,22.06
2018-07-01T20:54:17.232Z,22.03
2018-07-01T20:56:46.394Z,21.98
2018-07-01T20:59:16.011Z,21.95
2018-07-01T21:01:45.342Z,21.93
2018-07-01T21:04:14.694Z,21.91
2018-07-01T21:06:43.877Z,21.83
2018-07-01T21:09:13.112Z,21.73
2018-07-01T21:11:43.310Z,21.64
2018-07-01T21:14:13.520Z,21.55
2018-07-01T21:16:42.852Z,21.46
2018-07-01T21:19:12.400Z,21.39
2018-07-01T21:21:41.634Z,21.34
2018-07-01T21:24:10.835Z,21.29
2018-07-01T21:26:39.930Z,21.20
2018-07-01T21:29:09.555Z,21.06
2018-07-01T21:31:38.569Z,20.96
2018-07-01T21:34:07.469Z,20.91
2018-07-01T21:36:36.625Z,20.83
2018-07-01T21:39:08.253Z,20.77
2018-07-01T21:41:38.774Z,20.69
2018-07-01T21:44:08.705Z,20.59
2018-07-01T21:46:38.302Z,20.48
2018-07-01T21:49:08.899Z,20.39
2018-07-01T21:51:38.178Z,20.31
2018-07-01T21:54:07.662Z,20.22
2018-07-01T21:56:37.178Z,20.12
2018-07-01T21:59:06.936Z,20.05
2018-07-01T22:01:37.202Z,19.93
2018-07-01T22:04:06.740Z,19.82
2018-07-01T22:06:41.891Z,19.68
2018-07-01T22:09:11.268Z,19.59
2018-07-01T22:11:55.087Z,19.48
2018-07-01T22:14:27.970Z,19.37
2018-07-01T22:16:57.353Z,19.19
2018-07-01T22:19:26.456Z,19.08
2018-07-01T22:21:56.575Z,18.99
2018-07-01T22:24:28.919Z,18.83
2018-07-01T22:26:59.121Z,18.75
2018-07-01T22:29:28.476Z,18.68
2018-07-01T22:31:57.912Z,18.66
2018-07-01T22:34:27.326Z,18.48
2018-07-01T22:36:58.777Z,18.45
2018-07-01T22:39:31.808Z,18.39
2018-07-01T22:42:06.525Z,18.32
2018-07-01T22:44:36.340Z,18.28
2018-07-01T22:47:05.319Z,18.31
2018-07-01T22:49:34.789Z,18.26
2018-07-01T22:52:05.540Z,18.20
2018-07-01T22:54:37.849Z,18.13
2018-07-01T22:57:07.825Z,18.12
2018-07-01T22:59:39.424Z,18.03
2018-07-01T23:03:21.667Z,17.99
2018-07-01T23:05:52.014Z,17.90
2018-07-01T23:08:21.354Z,17.83
2018-07-01T23:10:50.947Z,17.78
2018-07-01T23:13:20.688Z,17.72
2018-07-01T23:15:49.977Z,17.74
2018-07-01T23:18:19.340Z,17.74
2018-07-01T23:20:48.826Z,17.69
2018-07-01T23:23:18.037Z,17.66
2018-07-01T23:25:47.407Z,17.65
2018-07-01T23:28:17.226Z,17.58
2018-07-01T23:30:46.589Z,17.53
2018-07-01T23:33:15.960Z,17.54
2018-07-01T23:35:45.584Z,17.48
2018-07-01T23:38:14.776Z,17.39
2018-07-01T23:40:43.949Z,17.38
2018-07-01T23:43:13.227Z,17.37
2018-07-01T23:45:42.762Z,17.34
2018-07-01T23:48:12.395Z,17.26
2018-07-01T23:50:41.494Z,17.18
2018-07-01T23:53:10.947Z,17.16
2018-07-01T23:55:39.924Z,17.14
2018-07-01T23:58:09.660Z,17.11
